sensor_id;sensor_type;location;lat;lon;timestamp;temperature;humidity
2907;DHT22;1463;51.070;16.998;2024-01-15T08:34:45;2.50;99.90
2907;DHT22;1463;51.070;16.998;2024-01-15T08:37:13;2.50;99.90
2907;DHT22;1463;51.070;16.998;2024-01-15T08:39:40;2.60;99.90
2907;DHT22;1463;51.070;16.998;2024-01-15T08:42:06;2.50;99.90
2907;DHT22;1463;51.070;16.998;2024-01-15T08:44:33;2.50;99.90
2907;DHT22;1463;51.070;16.998;2024-01-15T08:47:00;2.50;99.90
2907;DHT22;1463;51.070;16.998;2024-01-15T08:49:28;2.50;99.90
2907;DHT22;1463;51.070;16.998;2024-01-15T08:51:56;2.60;99.90
2907;DHT22;1463;51.070;16.998;2024-01-15T08:54:23;2.60;99.90
2907;DHT22;1463;51.070;16.998;2024-01-15T08:56:49;2.60;99.90
2907;DHT22;1463;51.070;16.998;2024-01-15T08:59:16;2.60;99.90
2907;DHT22;1463;51.070;16.998;2024-01-15T09:01:50;2.60;99.90
2907;DHT22;1463;51.070;16.998;2024-01-15T09:04:16;2.60;99.90
2907;DHT22;1463;51.070;16.998;2024-01-15T09:06:44;2.60;99.90
2907;DHT22;1463;51.070;16.998;2024-01-15T09:09:13;2.60;99.90
2907;DHT22;1463;51.070;16.998;2024-01-15T09:11:40;2.60;99.90
2907;DHT22;1463;51.070;16.998;2024-01-15T09:14:07;2.70;99.90
2907;DHT22;1463;51.070;16.998;2024-01-15T09:16:34;2.70;99.90
2907;DHT22;1463;51.070;16.998;2024-01-15T09:19:01;2.80;99.90
2907;DHT22;1463;51.070;16.998;2024-01-15T09:21:28;2.70;99.90
2907;DHT22;1463;51.070;16.998;2024-01-15T09:23:55;2.80;99.90
2907;DHT22;1463;51.070;16.998;2024-01-15T09:26:23;2.70;99.90
2907;DHT22;1463;51.070;16.998;2024-01-15T09:28:51;2.90;99.90
2907;DHT22;1463;51.070;16.998;2024-01-15T09:31:18;2.80;99.90
2907;DHT22;1463;51.070;16.998;2024-01-15T09:33:45;2.80;99.90
2907;DHT22;1463;51.070;16.998;2024-01-15T09:36:11;2.90;99.90
2907;DHT22;1463;51.070;16.998;2024-01-15T09:38:40;2.80;99.90
2907;DHT22;1463;51.070;16.998;2024-01-15T09:41:06;2.80;99.90
2907;DHT22;1463;51.070;16.998;2024-01-15T09:43:35;2.80;99.90
2907;DHT22;1463;51.070;16.998;2024-01-15T09:46:03;2.70;99.90
2907;DHT22;1463;51.070;16.998;2024-01-15T09:48:30;2.80;99.90
2907;DHT22;1463;51.070;16.998;2024-01-15T09:51:00;2.90;99.90
2907;DHT22;1463;51.070;16.998;2024-01-15T09:53:27;2.90;99.90
2907;DHT22;1463;51.070;16.998;2024-01-15T09:55:54;2.90;99.90
2907;DHT22;1463;51.070;16.998;2024-01-15T09:58:20;2.90;99.90
2907;DHT22;1463;51.070;16.998;2024-01-15T10:00:49;2.90;99.90
2907;DHT22;1463;51.070;16.998;2024-01-15T10:03:16;2.90;99.90
2907;DHT22;1463;51.070;16.998;2024-01-15T10:05:43;2.90;99.90
2907;DHT22;1463;51.070;16.998;2024-01-15T10:08:10;2.90;99.90
2907;DHT22;1463;51.070;16.998;2024-01-15T10:10:38;3.00;99.90
2907;DHT22;1463;51.070;16.998;2024-01-15T10:13:04;2.90;99.90
2907;DHT22;1463;51.070;16.998;2024-01-15T10:15:34;2.90;99.90
2907;DHT22;1463;51.070;16.998;2024-01-15T10:18:04;2.90;99.90
2907;DHT22;1463;51.070;16.998;2024-01-15T10:20:32;3.00;99.90
2907;DHT22;1463;51.070;16.998;2024-01-15T10:22:59;3.00;99.90
2907;DHT22;1463;51.070;16.998;2024-01-15T10:25:26;3.00;99.90
2907;DHT22;1463;51.070;16.998;2024-01-15T10:28:00;3.00;99.90
2907;DHT22;1463;51.070;16.998;2024-01-15T10:30:27;3.00;99.90
2907;DHT22;1463;51.070;16.998;2024-01-15T10:32:58;3.10;99.90
2907;DHT22;1463;51.070;16.998;2024-01-15T10:35:29;3.20;99.90
2907;DHT22;1463;51.070;16.998;2024-01-15T10:37:55;3.10;99.90
2907;DHT22;1463;51.070;16.998;2024-01-15T10:40:23;3.20;99.90
2907;DHT22;1463;51.070;16.998;2024-01-15T10:42:50;3.10;99.90
2907;DHT22;1463;51.070;16.998;2024-01-15T10:45:17;3.40;99.90
2907;DHT22;1463;51.070;16.998;2024-01-15T10:47:44;3.30;99.90
2907;DHT22;1463;51.070;16.998;2024-01-15T10:50:12;3.30;99.90
2907;DHT22;1463;51.070;16.998;2024-01-15T10:52:40;3.10;99.90
2907;DHT22;1463;51.070;16.998;2024-01-15T10:55:09;3.20;99.90
2907;DHT22;1463;51.070;16.998;2024-01-15T10:57:37;3.30;99.90
2907;DHT22;1463;51.070;16.998;2024-01-15T11:00:05;4.00;99.90
2907;DHT22;1463;51.070;16.998;2024-01-15T11:02:32;4.60;99.90
2907;DHT22;1463;51.070;16.998;2024-01-15T11:05:00;4.80;99.90
2907;DHT22;1463;51.070;16.998;2024-01-15T11:07:28;5.60;99.90
2907;DHT22;1463;51.070;16.998;2024-01-15T11:09:57;5.80;99.90
2907;DHT22;1463;51.070;16.998;2024-01-15T11:12:25;5.50;99.70
2907;DHT22;1463;51.070;16.998;2024-01-15T11:14:51;5.60;99.40
2907;DHT22;1463;51.070;16.998;2024-01-15T11:17:20;5.90;99.00
2907;DHT22;1463;51.070;16.998;2024-01-15T11:19:48;6.10;98.50
2907;DHT22;1463;51.070;16.998;2024-01-15T11:22:49;6.00;97.90
2907;DHT22;1463;51.070;16.998;2024-01-15T11:25:19;6.00;96.80
2907;DHT22;1463;51.070;16.998;2024-01-15T11:27:46;5.90;96.70
2907;DHT22;1463;51.070;16.998;2024-01-15T11:30:16;5.60;97.30
2907;DHT22;1463;51.070;16.998;2024-01-15T11:32:43;5.60;97.60
2907;DHT22;1463;51.070;16.998;2024-01-15T11:35:11;5.40;97.80
2907;DHT22;1463;51.070;16.998;2024-01-15T11:37:57;5.20;97.60
2907;DHT22;1463;51.070;16.998;2024-01-15T11:40:38;5.10;97.80
2907;DHT22;1463;51.070;16.998;2024-01-15T11:43:06;4.80;98.40
2907;DHT22;1463;51.070;16.998;2024-01-15T11:45:35;4.60;98.90
2907;DHT22;1463;51.070;16.998;2024-01-15T11:48:12;4.50;99.60
2907;DHT22;1463;51.070;16.998;2024-01-15T11:50:40;4.40;99.30
2907;DHT22;1463;51.070;16.998;2024-01-15T11:53:15;4.60;99.90
2907;DHT22;1463;51.070;16.998;2024-01-15T11:55:45;5.10;99.20
2907;DHT22;1463;51.070;16.998;2024-01-15T11:58:14;5.40;97.90
2907;DHT22;1463;51.070;16.998;2024-01-15T12:00:43;5.40;97.80
2907;DHT22;1463;51.070;16.998;2024-01-15T12:03:10;5.40;97.80
2907;DHT22;1463;51.070;16.998;2024-01-15T12:05:37;5.20;98.10
2907;DHT22;1463;51.070;16.998;2024-01-15T12:08:04;4.80;98.20
2907;DHT22;1463;51.070;16.998;2024-01-15T12:10:36;4.60;98.60
2907;DHT22;1463;51.070;16.998;2024-01-15T12:13:05;4.40;99.30
2907;DHT22;1463;51.070;16.998;2024-01-15T12:15:33;4.30;99.30
2907;DHT22;1463;51.070;16.998;2024-01-15T12:18:01;4.10;99.90
2907;DHT22;1463;51.070;16.998;2024-01-15T12:20:29;4.00;99.90
2907;DHT22;1463;51.070;16.998;2024-01-15T12:22:56;3.90;99.90
2907;DHT22;1463;51.070;16.998;2024-01-15T12:25:23;3.90;99.90
2907;DHT22;1463;51.070;16.998;2024-01-15T12:27:50;3.70;99.90
2907;DHT22;1463;51.070;16.998;2024-01-15T12:30:19;3.70;99.90
2907;DHT22;1463;51.070;16.998;2024-01-15T12:32:46;3.70;99.90
2907;DHT22;1463;51.070;16.998;2024-01-15T12:35:13;3.70;99.90
2907;DHT22;1463;51.070;16.998;2024-01-15T12:37:41;3.60;99.90
2907;DHT22;1463;51.070;16.998;2024-01-15T12:40:09;3.50;99.90
2907;DHT22;1463;51.070;16.998;2024-01-15T12:42:36;3.50;99.90
2907;DHT22;1463;51.070;16.998;2024-01-15T12:45:04;3.50;99.90
2907;DHT22;1463;51.070;16.998;2024-01-15T12:47:33;3.50;99.90
2907;DHT22;1463;51.070;16.998;2024-01-15T12:49:59;3.50;99.90
2907;DHT22;1463;51.070;16.998;2024-01-15T12:52:27;3.60;99.90
2907;DHT22;1463;51.070;16.998;2024-01-15T12:54:54;3.60;99.90
2907;DHT22;1463;51.070;16.998;2024-01-15T12:57:20;3.50;99.90
2907;DHT22;1463;51.070;16.998;2024-01-15T12:59:47;3.40;99.90
2907;DHT22;1463;51.070;16.998;2024-01-15T13:02:15;3.40;99.90
2907;DHT22;1463;51.070;16.998;2024-01-15T13:04:44;3.40;99.90
2907;DHT22;1463;51.070;16.998;2024-01-15T13:07:10;3.40;99.90
2907;DHT22;1463;51.070;16.998;2024-01-15T13:09:37;3.40;99.90
2907;DHT22;1463;51.070;16.998;2024-01-15T13:12:04;3.40;99.90
2907;DHT22;1463;51.070;16.998;2024-01-15T13:14:32;3.40;99.90
2907;DHT22;1463;51.070;16.998;2024-01-15T13:16:59;3.40;99.90
2907;DHT22;1463;51.070;16.998;2024-01-15T13:19:25;3.30;99.90
2907;DHT22;1463;51.070;16.998;2024-01-15T13:21:54;3.30;99.90
2907;DHT22;1463;51.070;16.998;2024-01-15T13:24:21;3.30;99.90
2907;DHT22;1463;51.070;16.998;2024-01-15T13:26:48;3.40;99.90
2907;DHT22;1463;51.070;16.998;2024-01-15T13:29:15;3.40;99.90
2907;DHT22;1463;51.070;16.998;2024-01-15T13:31:41;3.30;99.90
2907;DHT22;1463;51.070;16.998;2024-01-15T13:34:08;3.30;99.90
2907;DHT22;1463;51.070;16.998;2024-01-15T13:36:35;3.20;99.90
2907;DHT22;1463;51.070;16.998;2024-01-15T13:39:05;3.20;99.90
2907;DHT22;1463;51.070;16.998;2024-01-15T13:41:34;3.30;99.90
2907;DHT22;1463;51.070;16.998;2024-01-15T13:44:01;3.30;99.90
2907;DHT22;1463;51.070;16.998;2024-01-15T13:46:29;3.30;99.90
2907;DHT22;1463;51.070;16.998;2024-01-15T13:48:55;3.30;99.90
2907;DHT22;1463;51.070;16.998;2024-01-15T13:51:22;3.20;99.90
2907;DHT22;1463;51.070;16.998;2024-01-15T13:53:49;3.30;99.90
2907;DHT22;1463;51.070;16.998;2024-01-15T13:56:17;3.30;99.90
2907;DHT22;1463;51.070;16.998;2024-01-15T13:58:44;3.30;99.90
2907;DHT22;1463;51.070;16.998;2024-01-15T14:01:11;3.30;99.90
2907;DHT22;1463;51.070;16.998;2024-01-15T14:03:38;3.30;99.90
2907;DHT22;1463;51.070;16.998;2024-01-15T14:06:04;3.30;99.90
2907;DHT22;1463;51.070;16.998;2024-01-15T14:08:34;3.20;99.90
2907;DHT22;1463;51.070;16.998;2024-01-15T14:11:02;3.20;99.90
2907;DHT22;1463;51.070;16.998;2024-01-15T14:13:30;3.20;99.90
2907;DHT22;1463;51.070;16.998;2024-01-15T14:15:57;3.20;99.90
2907;DHT22;1463;51.070;16.998;2024-01-15T14:18:24;3.10;99.90
2907;DHT22;1463;51.070;16.998;2024-01-15T14:20:51;3.10;99.90
2907;DHT22;1463;51.070;16.998;2024-01-15T14:23:18;3.10;99.90
2907;DHT22;1463;51.070;16.998;2024-01-15T14:25:45;3.00;99.90
2907;DHT22;1463;51.070;16.998;2024-01-15T14:28:12;3.00;99.90
2907;DHT22;1463;51.070;16.998;2024-01-15T14:30:40;3.00;99.90
2907;DHT22;1463;51.070;16.998;2024-01-15T14:33:06;3.00;99.90
2907;DHT22;1463;51.070;16.998;2024-01-15T14:35:33;3.00;99.90
2907;DHT22;1463;51.070;16.998;2024-01-15T14:38:00;2.90;99.90
2907;DHT22;1463;51.070;16.998;2024-01-15T14:40:26;3.00;99.90
2907;DHT22;1463;51.070;16.998;2024-01-15T14:42:53;3.00;99.90
2907;DHT22;1463;51.070;16.998;2024-01-15T14:45:20;2.90;99.90
2907;DHT22;1463;51.070;16.998;2024-01-15T14:47:48;3.00;99.90
2907;DHT22;1463;51.070;16.998;2024-01-15T14:50:15;2.90;99.90
2907;DHT22;1463;51.070;16.998;2024-01-15T14:52:42;3.00;99.90
2907;DHT22;1463;51.070;16.998;2024-01-15T14:55:10;2.90;99.90
2907;DHT22;1463;51.070;16.998;2024-01-15T14:57:36;2.80;99.90
2907;DHT22;1463;51.070;16.998;2024-01-15T15:00:04;2.90;99.90
2907;DHT22;1463;51.070;16.998;2024-01-15T15:02:32;2.80;99.90
2907;DHT22;1463;51.070;16.998;2024-01-15T15:05:01;2.80;99.90
2907;DHT22;1463;51.070;16.998;2024-01-15T15:07:28;2.80;99.90
2907;DHT22;1463;51.070;16.998;2024-01-15T15:09:55;2.80;99.90
2907;DHT22;1463;51.070;16.998;2024-01-15T15:12:22;2.80;99.90
2907;DHT22;1463;51.070;16.998;2024-01-15T15:14:49;2.80;99.90
2907;DHT22;1463;51.070;16.998;2024-01-15T15:17:15;2.80;99.90
2907;DHT22;1463;51.070;16.998;2024-01-15T15:19:42;2.70;99.90
2907;DHT22;1463;51.070;16.998;2024-01-15T15:22:10;2.70;99.90
2907;DHT22;1463;51.070;16.998;2024-01-15T15:24:37;2.80;99.90
2907;DHT22;1463;51.070;16.998;2024-01-15T15:27:04;2.80;99.90
2907;DHT22;1463;51.070;16.998;2024-01-15T15:29:32;2.70;99.90
2907;DHT22;1463;51.070;16.998;2024-01-15T15:31:58;2.70;99.90
2907;DHT22;1463;51.070;16.998;2024-01-15T15:34:25;2.60;99.90
2907;DHT22;1463;51.070;16.998;2024-01-15T15:36:52;2.60;99.90
2907;DHT22;1463;51.070;16.998;2024-01-15T15:39:20;2.60;99.90
2907;DHT22;1463;51.070;16.998;2024-01-15T15:41:46;2.60;99.90
2907;DHT22;1463;51.070;16.998;2024-01-15T15:44:14;2.60;99.90
2907;DHT22;1463;51.070;16.998;2024-01-15T15:46:42;2.50;99.90
2907;DHT22;1463;51.070;16.998;2024-01-15T15:49:09;2.50;99.90
2907;DHT22;1463;51.070;16.998;2024-01-15T15:51:36;2.50;99.90
2907;DHT22;1463;51.070;16.998;2024-01-15T15:54:03;2.60;99.90
2907;DHT22;1463;51.070;16.998;2024-01-15T15:56:32;2.50;99.90
2907;DHT22;1463;51.070;16.998;2024-01-15T15:59:03;2.50;99.90
2907;DHT22;1463;51.070;16.998;2024-01-15T16:01:30;2.50;99.90
2907;DHT22;1463;51.070;16.998;2024-01-15T16:03:57;2.40;99.90
2907;DHT22;1463;51.070;16.998;2024-01-15T16:06:24;2.40;99.90
2907;DHT22;1463;51.070;16.998;2024-01-15T16:08:51;2.40;99.90
2907;DHT22;1463;51.070;16.998;2024-01-15T16:11:17;2.40;99.90
2907;DHT22;1463;51.070;16.998;2024-01-15T16:13:45;2.40;99.90
2907;DHT22;1463;51.070;16.998;2024-01-15T16:16:12;2.30;99.90
2907;DHT22;1463;51.070;16.998;2024-01-15T16:18:39;2.30;99.90
2907;DHT22;1463;51.070;16.998;2024-01-15T16:21:05;2.40;99.90
2907;DHT22;1463;51.070;16.998;2024-01-15T16:23:32;2.30;99.90
2907;DHT22;1463;51.070;16.998;2024-01-15T16:25:59;2.20;99.90
2907;DHT22;1463;51.070;16.998;2024-01-15T16:28:26;2.20;99.90
2907;DHT22;1463;51.070;16.998;2024-01-15T16:30:54;2.20;99.90
2907;DHT22;1463;51.070;16.998;2024-01-15T16:33:20;2.10;99.90
2907;DHT22;1463;51.070;16.998;2024-01-15T16:35:47;2.20;99.90
2907;DHT22;1463;51.070;16.998;2024-01-15T16:38:14;2.10;99.90
2907;DHT22;1463;51.070;16.998;2024-01-15T16:40:40;2.10;99.90
2907;DHT22;1463;51.070;16.998;2024-01-15T16:43:07;2.10;99.90
2907;DHT22;1463;51.070;16.998;2024-01-15T16:45:34;2.00;99.90
2907;DHT22;1463;51.070;16.998;2024-01-15T16:48:03;2.00;99.90
2907;DHT22;1463;51.070;16.998;2024-01-15T16:50:29;2.00;99.90
2907;DHT22;1463;51.070;16.998;2024-01-15T16:52:56;2.00;99.90
2907;DHT22;1463;51.070;16.998;2024-01-15T16:55:23;1.90;99.90
2907;DHT22;1463;51.070;16.998;2024-01-15T16:57:50;2.00;99.90
2907;DHT22;1463;51.070;16.998;2024-01-15T17:00:17;2.10;99.90
2907;DHT22;1463;51.070;16.998;2024-01-15T17:09:30;2.10;99.90
2907;DHT22;1463;51.070;16.998;2024-01-15T17:11:57;2.00;99.90
2907;DHT22;1463;51.070;16.998;2024-01-15T17:14:24;2.10;99.90
2907;DHT22;1463;51.070;16.998;2024-01-15T17:16:50;2.10;99.90
2907;DHT22;1463;51.070;16.998;2024-01-15T17:19:17;2.00;99.90
2907;DHT22;1463;51.070;16.998;2024-01-15T17:21:44;2.10;99.90
2907;DHT22;1463;51.070;16.998;2024-01-15T17:24:11;2.10;99.90
2907;DHT22;1463;51.070;16.998;2024-01-15T17:26:39;2.10;99.90
2907;DHT22;1463;51.070;16.998;2024-01-15T17:29:06;2.20;99.90
2907;DHT22;1463;51.070;16.998;2024-01-15T17:31:33;2.10;99.90
2907;DHT22;1463;51.070;16.998;2024-01-15T17:33:59;2.10;99.90
2907;DHT22;1463;51.070;16.998;2024-01-15T17:36:26;2.10;99.90
2907;DHT22;1463;51.070;16.998;2024-01-15T17:38:53;2.20;99.90
2907;DHT22;1463;51.070;16.998;2024-01-15T17:41:19;2.20;99.90
2907;DHT22;1463;51.070;16.998;2024-01-15T17:43:47;2.10;99.90
2907;DHT22;1463;51.070;16.998;2024-01-15T17:46:14;2.10;99.90
2907;DHT22;1463;51.070;16.998;2024-01-15T17:48:41;2.10;99.90
2907;DHT22;1463;51.070;16.998;2024-01-15T17:51:08;2.10;99.90
2907;DHT22;1463;51.070;16.998;2024-01-15T17:53:36;2.20;99.90
2907;DHT22;1463;51.070;16.998;2024-01-15T17:56:03;2.20;99.90
2907;DHT22;1463;51.070;16.998;2024-01-15T17:58:29;2.20;99.90
2907;DHT22;1463;51.070;16.998;2024-01-15T18:00:58;2.30;99.90
2907;DHT22;1463;51.070;16.998;2024-01-15T18:03:24;2.40;99.90
2907;DHT22;1463;51.070;16.998;2024-01-15T18:05:51;2.40;99.90
2907;DHT22;1463;51.070;16.998;2024-01-15T18:08:18;2.30;99.90
2907;DHT22;1463;51.070;16.998;2024-01-15T18:10:45;2.30;99.90
2907;DHT22;1463;51.070;16.998;2024-01-15T18:13:11;2.20;99.90
2907;DHT22;1463;51.070;16.998;2024-01-15T18:15:38;2.20;99.90
2907;DHT22;1463;51.070;16.998;2024-01-15T18:18:06;2.20;99.90
2907;DHT22;1463;51.070;16.998;2024-01-15T18:20:33;2.20;99.90
2907;DHT22;1463;51.070;16.998;2024-01-15T18:23:01;2.30;99.90
2907;DHT22;1463;51.070;16.998;2024-01-15T18:25:28;2.30;99.90
2907;DHT22;1463;51.070;16.998;2024-01-15T18:27:56;2.20;99.90
2907;DHT22;1463;51.070;16.998;2024-01-15T18:30:22;2.20;99.90
2907;DHT22;1463;51.070;16.998;2024-01-15T18:32:49;2.20;99.90
2907;DHT22;1463;51.070;16.998;2024-01-15T18:35:17;2.20;99.90
2907;DHT22;1463;51.070;16.998;2024-01-15T18:37:44;2.20;99.90
2907;DHT22;1463;51.070;16.998;2024-01-15T18:40:11;2.20;99.90
2907;DHT22;1463;51.070;16.998;2024-01-15T18:42:38;2.10;99.90
2907;DHT22;1463;51.070;16.998;2024-01-15T18:45:06;2.20;99.90
2907;DHT22;1463;51.070;16.998;2024-01-15T18:47:35;2.10;99.90
2907;DHT22;1463;51.070;16.998;2024-01-15T18:50:02;2.20;99.90
2907;DHT22;1463;51.070;16.998;2024-01-15T18:52:30;2.20;99.90
2907;DHT22;1463;51.070;16.998;2024-01-15T18:54:57;2.10;99.90
2907;DHT22;1463;51.070;16.998;2024-01-15T18:57:23;2.10;99.90
2907;DHT22;1463;51.070;16.998;2024-01-15T18:59:50;2.00;99.90
2907;DHT22;1463;51.070;16.998;2024-01-15T19:02:17;2.00;99.90
2907;DHT22;1463;51.070;16.998;2024-01-15T19:04:44;2.00;99.90
2907;DHT22;1463;51.070;16.998;2024-01-15T19:07:11;2.00;99.90
2907;DHT22;1463;51.070;16.998;2024-01-15T19:09:39;2.00;99.90
2907;DHT22;1463;51.070;16.998;2024-01-15T19:12:06;2.10;99.90
2907;DHT22;1463;51.070;16.998;2024-01-15T19:14:33;2.10;99.90
2907;DHT22;1463;51.070;16.998;2024-01-15T19:17:00;2.10;99.90
2907;DHT22;1463;51.070;16.998;2024-01-15T19:19:29;2.00;99.90
2907;DHT22;1463;51.070;16.998;2024-01-15T19:22:00;2.20;99.90
2907;DHT22;1463;51.070;16.998;2024-01-15T19:24:26;2.10;99.90
2907;DHT22;1463;51.070;16.998;2024-01-15T19:26:54;2.20;99.90
2907;DHT22;1463;51.070;16.998;2024-01-15T19:29:21;2.10;99.90
2907;DHT22;1463;51.070;16.998;2024-01-15T19:31:48;2.10;99.90
2907;DHT22;1463;51.070;16.998;2024-01-15T19:34:14;2.10;99.90
2907;DHT22;1463;51.070;16.998;2024-01-15T19:36:41;2.10;99.90
2907;DHT22;1463;51.070;16.998;2024-01-15T19:39:08;2.10;99.90
2907;DHT22;1463;51.070;16.998;2024-01-15T19:41:36;2.10;99.90
2907;DHT22;1463;51.070;16.998;2024-01-15T19:44:04;2.10;99.90
2907;DHT22;1463;51.070;16.998;2024-01-15T19:46:32;2.10;99.90
2907;DHT22;1463;51.070;16.998;2024-01-15T19:48:59;2.10;99.90
2907;DHT22;1463;51.070;16.998;2024-01-15T19:51:26;2.10;99.90
2907;DHT22;1463;51.070;16.998;2024-01-15T19:53:52;2.10;99.90
2907;DHT22;1463;51.070;16.998;2024-01-15T19:56:20;2.10;99.90
2907;DHT22;1463;51.070;16.998;2024-01-15T19:58:47;2.00;99.90
2907;DHT22;1463;51.070;16.998;2024-01-15T20:01:15;2.00;99.90
2907;DHT22;1463;51.070;16.998;2024-01-15T20:03:42;2.00;99.90
2907;DHT22;1463;51.070;16.998;2024-01-15T20:06:10;1.90;99.90
2907;DHT22;1463;51.070;16.998;2024-01-15T20:08:38;1.80;99.90
2907;DHT22;1463;51.070;16.998;2024-01-15T20:11:07;1.70;99.90
2907;DHT22;1463;51.070;16.998;2024-01-15T20:13:34;1.70;99.90
2907;DHT22;1463;51.070;16.998;2024-01-15T20:16:05;1.60;99.90
2907;DHT22;1463;51.070;16.998;2024-01-15T20:18:33;1.60;99.90
2907;DHT22;1463;51.070;16.998;2024-01-15T20:21:00;1.60;99.90
2907;DHT22;1463;51.070;16.998;2024-01-15T20:23:27;1.60;99.90
2907;DHT22;1463;51.070;16.998;2024-01-15T20:25:54;1.60;99.90
2907;DHT22;1463;51.070;16.998;2024-01-15T20:28:20;1.60;99.90
2907;DHT22;1463;51.070;16.998;2024-01-15T20:30:47;1.60;99.90
2907;DHT22;1463;51.070;16.998;2024-01-15T20:33:15;1.70;99.90
2907;DHT22;1463;51.070;16.998;2024-01-15T20:35:45;1.70;99.90
2907;DHT22;1463;51.070;16.998;2024-01-15T20:38:11;1.70;99.90
2907;DHT22;1463;51.070;16.998;2024-01-15T20:40:38;1.70;99.90
2907;DHT22;1463;51.070;16.998;2024-01-15T20:43:05;1.70;99.90
2907;DHT22;1463;51.070;16.998;2024-01-15T20:45:32;1.70;99.90
2907;DHT22;1463;51.070;16.998;2024-01-15T20:47:58;1.70;99.90
2907;DHT22;1463;51.070;16.998;2024-01-15T20:50:25;1.70;99.90
2907;DHT22;1463;51.070;16.998;2024-01-15T20:52:53;1.70;99.90
2907;DHT22;1463;51.070;16.998;2024-01-15T20:55:20;1.70;99.90
2907;DHT22;1463;51.070;16.998;2024-01-15T20:57:47;1.70;99.90
2907;DHT22;1463;51.070;16.998;2024-01-15T21:00:15;1.70;99.90
2907;DHT22;1463;51.070;16.998;2024-01-15T21:02:44;1.70;99.90
2907;DHT22;1463;51.070;16.998;2024-01-15T21:05:11;1.70;99.90
2907;DHT22;1463;51.070;16.998;2024-01-15T21:07:38;1.70;99.90
2907;DHT22;1463;51.070;16.998;2024-01-15T21:10:07;1.70;99.90
2907;DHT22;1463;51.070;16.998;2024-01-15T21:12:34;1.70;99.90
2907;DHT22;1463;51.070;16.998;2024-01-15T21:15:00;1.70;99.90
2907;DHT22;1463;51.070;16.998;2024-01-15T21:17:27;1.70;99.90
2907;DHT22;1463;51.070;16.998;2024-01-15T21:19:54;1.70;99.90
2907;DHT22;1463;51.070;16.998;2024-01-15T21:22:21;1.60;99.90
2907;DHT22;1463;51.070;16.998;2024-01-15T21:24:48;1.60;99.90
2907;DHT22;1463;51.070;16.998;2024-01-15T21:27:16;1.60;99.90
2907;DHT22;1463;51.070;16.998;2024-01-15T21:29:43;1.70;99.90
2907;DHT22;1463;51.070;16.998;2024-01-15T21:32:09;1.70;99.90
2907;DHT22;1463;51.070;16.998;2024-01-15T21:34:36;1.70;99.90
2907;DHT22;1463;51.070;16.998;2024-01-15T21:37:03;1.70;99.90
2907;DHT22;1463;51.070;16.998;2024-01-15T21:39:30;1.70;99.90
2907;DHT22;1463;51.070;16.998;2024-01-15T21:41:58;1.80;99.90
2907;DHT22;1463;51.070;16.998;2024-01-15T21:44:26;1.70;99.90
2907;DHT22;1463;51.070;16.998;2024-01-15T21:46:52;1.70;99.90
2907;DHT22;1463;51.070;16.998;2024-01-15T21:49:19;1.80;99.90
2907;DHT22;1463;51.070;16.998;2024-01-15T21:51:46;1.70;99.90
2907;DHT22;1463;51.070;16.998;2024-01-15T21:54:12;1.70;99.90
2907;DHT22;1463;51.070;16.998;2024-01-15T21:56:39;1.70;99.90
2907;DHT22;1463;51.070;16.998;2024-01-15T21:59:06;1.80;99.90
2907;DHT22;1463;51.070;16.998;2024-01-15T22:01:34;1.80;99.90
2907;DHT22;1463;51.070;16.998;2024-01-15T22:04:01;1.80;99.90
2907;DHT22;1463;51.070;16.998;2024-01-15T22:06:28;1.90;99.90
2907;DHT22;1463;51.070;16.998;2024-01-15T22:09:00;1.80;99.90
2907;DHT22;1463;51.070;16.998;2024-01-15T22:11:26;1.80;99.90
2907;DHT22;1463;51.070;16.998;2024-01-15T22:13:53;1.80;99.90
2907;DHT22;1463;51.070;16.998;2024-01-15T22:16:20;1.80;99.90
2907;DHT22;1463;51.070;16.998;2024-01-15T22:18:48;1.80;99.90
2907;DHT22;1463;51.070;16.998;2024-01-15T22:21:14;1.90;99.90
2907;DHT22;1463;51.070;16.998;2024-01-15T22:23:41;1.90;99.90
2907;DHT22;1463;51.070;16.998;2024-01-15T22:26:08;1.90;99.90
2907;DHT22;1463;51.070;16.998;2024-01-15T22:28:35;1.80;99.90
2907;DHT22;1463;51.070;16.998;2024-01-15T22:31:01;1.80;99.90
2907;DHT22;1463;51.070;16.998;2024-01-15T22:33:28;1.80;99.90
2907;DHT22;1463;51.070;16.998;2024-01-15T22:35:56;1.80;99.90
2907;DHT22;1463;51.070;16.998;2024-01-15T22:38:23;1.80;99.90
2907;DHT22;1463;51.070;16.998;2024-01-15T22:40:50;1.80;99.90
2907;DHT22;1463;51.070;16.998;2024-01-15T22:43:16;1.80;99.90
2907;DHT22;1463;51.070;16.998;2024-01-15T22:45:43;1.80;99.90
2907;DHT22;1463;51.070;16.998;2024-01-15T22:48:10;1.80;99.90
2907;DHT22;1463;51.070;16.998;2024-01-15T22:50:36;1.80;99.90
2907;DHT22;1463;51.070;16.998;2024-01-15T22:53:04;1.80;99.90
2907;DHT22;1463;51.070;16.998;2024-01-15T22:55:31;1.80;99.90
2907;DHT22;1463;51.070;16.998;2024-01-15T22:57:58;1.70;99.90
2907;DHT22;1463;51.070;16.998;2024-01-15T23:00:24;1.80;99.90
2907;DHT22;1463;51.070;16.998;2024-01-15T23:02:51;1.80;99.90
2907;DHT22;1463;51.070;16.998;2024-01-15T23:05:22;1.80;99.90
2907;DHT22;1463;51.070;16.998;2024-01-15T23:07:49;1.80;99.90
2907;DHT22;1463;51.070;16.998;2024-01-15T23:10:17;1.80;99.90
2907;DHT22;1463;51.070;16.998;2024-01-15T23:12:45;1.90;99.90
2907;DHT22;1463;51.070;16.998;2024-01-15T23:15:11;1.80;99.90
2907;DHT22;1463;51.070;16.998;2024-01-15T23:17:38;1.80;99.90
2907;DHT22;1463;51.070;16.998;2024-01-15T23:20:06;1.80;99.90
2907;DHT22;1463;51.070;16.998;2024-01-15T23:22:34;1.70;99.90
2907;DHT22;1463;51.070;16.998;2024-01-15T23:25:00;1.70;99.90
2907;DHT22;1463;51.070;16.998;2024-01-15T23:27:29;1.60;99.90
2907;DHT22;1463;51.070;16.998;2024-01-15T23:29:56;1.60;99.90
2907;DHT22;1463;51.070;16.998;2024-01-15T23:32:23;1.60;99.90
2907;DHT22;1463;51.070;16.998;2024-01-15T23:34:50;1.40;99.90
2907;DHT22;1463;51.070;16.998;2024-01-15T23:37:17;1.40;99.90
2907;DHT22;1463;51.070;16.998;2024-01-15T23:39:43;1.30;99.90
2907;DHT22;1463;51.070;16.998;2024-01-15T23:42:10;1.30;99.90
2907;DHT22;1463;51.070;16.998;2024-01-15T23:44:39;1.40;99.90
2907;DHT22;1463;51.070;16.998;2024-01-15T23:47:05;1.40;99.90
2907;DHT22;1463;51.070;16.998;2024-01-15T23:49:32;1.40;99.90
2907;DHT22;1463;51.070;16.998;2024-01-15T23:51:59;1.40;99.90
2907;DHT22;1463;51.070;16.998;2024-01-15T23:54:25;1.50;99.90
2907;DHT22;1463;51.070;16.998;2024-01-15T23:56:52;1.40;99.90
2907;DHT22;1463;51.070;16.998;2024-01-15T23:59:19;1.40;99.90
